createdAt,value
2022-11-05T00:02:22.932Z,10.06
2022-11-05T00:05:08.230Z,10.12
2022-11-05T00:08:01.828Z,10.14
2022-11-05T00:10:30.729Z,10.26
2022-11-05T00:13:18.165Z,10.16
2022-11-05T00:16:03.975Z,10.16
2022-11-05T00:18:30.493Z,10.24
2022-11-05T00:20:57.111Z,10.19
2022-11-05T00:23:41.981Z,10.17
2022-11-05T00:26:11.335Z,10.18
2022-11-05T00:28:43.923Z,10.12
2022-11-05T00:31:12.997Z,10.12
2022-11-05T00:33:41.617Z,10.11
2022-11-05T00:36:09.903Z,10.11
2022-11-05T00:38:36.499Z,10.11
2022-11-05T00:41:02.903Z,10.09
2022-11-05T00:43:48.102Z,10.11
2022-11-05T00:46:14.558Z,10.18
2022-11-05T00:48:59.803Z,10.19
2022-11-05T00:51:26.226Z,10.13
2022-11-05T00:53:52.651Z,10.30
2022-11-05T00:56:19.025Z,10.18
2022-11-05T00:58:45.484Z,10.10
2022-11-05T01:01:12.092Z,10.14
2022-11-05T01:03:40.394Z,10.27
2022-11-05T01:06:15.310Z,10.28
2022-11-05T01:08:43.971Z,10.27
2022-11-05T01:11:37.196Z,10.26
2022-11-05T01:14:06.530Z,10.25
2022-11-05T01:16:33.562Z,10.34
2022-11-05T01:19:00.977Z,10.24
2022-11-05T01:21:27.485Z,10.20
2022-11-05T01:23:54.227Z,10.07
2022-11-05T01:26:20.726Z,9.98
2022-11-05T01:28:55.227Z,10.02
2022-11-05T01:31:23.039Z,9.89
2022-11-05T01:33:50.215Z,9.92
2022-11-05T01:36:17.287Z,9.97
2022-11-05T01:38:43.910Z,9.99
2022-11-05T01:41:10.349Z,9.91
2022-11-05T01:43:50.322Z,9.94
2022-11-05T01:46:25.810Z,9.91
2022-11-05T01:48:58.614Z,10.01
2022-11-05T01:51:28.747Z,9.94
2022-11-05T01:54:05.199Z,9.97
2022-11-05T01:56:49.745Z,10.02
2022-11-05T01:59:22.130Z,10.02
2022-11-05T02:01:48.749Z,10.09
2022-11-05T02:04:21.018Z,10.17
2022-11-05T02:06:47.595Z,10.06
2022-11-05T02:09:19.992Z,10.10
2022-11-05T02:11:47.415Z,10.04
2022-11-05T02:14:13.818Z,10.04
2022-11-05T02:16:52.793Z,9.99
2022-11-05T02:19:37.670Z,9.99
2022-11-05T02:22:35.131Z,10.07
2022-11-05T02:25:31.359Z,10.13
2022-11-05T02:28:14.406Z,10.23
2022-11-05T02:30:50.640Z,10.23
2022-11-05T02:33:26.678Z,10.26
2022-11-05T02:36:18.255Z,10.24
2022-11-05T02:38:54.473Z,10.20
2022-11-05T02:42:04.670Z,10.19
2022-11-05T02:44:34.661Z,10.16
2022-11-05T02:47:07.112Z,10.09
2022-11-05T02:49:36.448Z,10.01
2022-11-05T02:52:24.749Z,9.98
2022-11-05T02:55:03.262Z,9.94
2022-11-05T02:57:30.680Z,9.99
2022-11-05T03:00:05.899Z,9.96
2022-11-05T03:02:32.967Z,9.96
2022-11-05T03:05:00.953Z,9.99
2022-11-05T03:07:45.031Z,10.02
2022-11-05T03:10:49.249Z,10.03
2022-11-05T03:13:32.953Z,10.03
2022-11-05T03:16:06.854Z,9.98
2022-11-05T03:18:51.509Z,9.96
2022-11-05T03:21:30.456Z,9.98
2022-11-05T03:24:08.367Z,9.93
2022-11-05T03:26:52.487Z,9.95
2022-11-05T03:29:29.150Z,10.02
2022-11-05T03:31:59.313Z,10.01
2022-11-05T03:34:31.700Z,10.02
2022-11-05T03:36:58.763Z,9.99
2022-11-05T03:39:31.926Z,9.97
2022-11-05T03:41:59.883Z,10.00
2022-11-05T03:44:32.624Z,9.98
2022-11-05T03:47:09.409Z,9.94
2022-11-05T03:49:41.051Z,9.96
2022-11-05T03:52:12.943Z,10.11
2022-11-05T03:54:39.410Z,10.12
2022-11-05T03:57:31.333Z,10.10
2022-11-05T03:59:57.729Z,10.12
2022-11-05T04:02:26.753Z,10.27
2022-11-05T04:04:54.339Z,10.21
2022-11-05T04:07:39.457Z,10.21
2022-11-05T04:10:24.806Z,10.20
2022-11-05T04:13:10.023Z,10.15
2022-11-05T04:15:56.587Z,10.17
2022-11-05T04:18:22.991Z,10.21
2022-11-05T04:21:08.083Z,10.18
2022-11-05T04:23:52.896Z,10.11
2022-11-05T04:26:23.251Z,10.19
2022-11-05T04:29:10.039Z,10.17
2022-11-05T04:31:37.149Z,10.16
2022-11-05T04:34:04.089Z,10.09
2022-11-05T04:36:31.778Z,10.12
2022-11-05T04:38:58.189Z,10.07
2022-11-05T04:41:24.748Z,9.96
2022-11-05T04:43:51.169Z,10.02
2022-11-05T04:46:17.711Z,10.11
2022-11-05T04:48:44.112Z,10.03
2022-11-05T04:51:10.500Z,10.04
2022-11-05T04:53:36.907Z,10.10
2022-11-05T04:56:18.243Z,10.01
2022-11-05T04:58:44.826Z,10.09
2022-11-05T05:01:16.448Z,10.09
2022-11-05T05:03:43.126Z,9.99
2022-11-05T05:06:09.689Z,10.01
2022-11-05T05:08:36.123Z,9.98
2022-11-05T05:11:08.075Z,9.97
2022-11-05T05:13:34.843Z,10.05
2022-11-05T05:16:07.149Z,9.98
2022-11-05T05:18:34.115Z,10.05
2022-11-05T05:21:19.767Z,9.95
2022-11-05T05:23:48.954Z,10.01
2022-11-05T05:26:16.146Z,10.05
2022-11-05T05:28:42.592Z,9.94
2022-11-05T05:31:09.319Z,9.91
2022-11-05T05:33:35.769Z,9.98
2022-11-05T05:36:05.819Z,9.99
2022-11-05T05:38:36.651Z,9.98
2022-11-05T05:41:03.310Z,9.94
2022-11-05T05:43:31.304Z,9.90
2022-11-05T05:46:01.827Z,9.93
2022-11-05T05:48:28.217Z,9.96
2022-11-05T05:50:54.688Z,9.96
2022-11-05T05:53:21.111Z,9.97
2022-11-05T05:55:47.516Z,9.92
2022-11-05T05:58:13.902Z,9.96
2022-11-05T06:00:40.335Z,9.94
2022-11-05T06:03:06.836Z,9.86
2022-11-05T06:05:35.337Z,9.89
2022-11-05T06:08:01.752Z,9.90
2022-11-05T06:10:28.236Z,9.99
2022-11-05T06:12:54.766Z,9.99
2022-11-05T06:15:21.148Z,10.00
2022-11-05T06:17:47.550Z,9.99
2022-11-05T06:20:14.077Z,9.93
2022-11-05T06:22:40.778Z,9.96
2022-11-05T06:25:08.482Z,9.92
2022-11-05T06:27:36.745Z,9.91
2022-11-05T06:30:04.988Z,9.85
2022-11-05T06:32:31.527Z,9.91
2022-11-05T06:34:57.935Z,9.86
2022-11-05T06:37:24.391Z,9.88
2022-11-05T06:39:50.797Z,9.89
2022-11-05T06:42:18.693Z,9.91
2022-11-05T06:44:45.873Z,9.92
2022-11-05T06:47:12.334Z,9.94
2022-11-05T06:49:38.749Z,9.95
2022-11-05T06:52:05.205Z,9.83
2022-11-05T06:54:31.610Z,9.89
2022-11-05T06:56:58.003Z,9.92
2022-11-05T06:59:24.523Z,9.97
2022-11-05T07:01:51.056Z,9.97
2022-11-05T07:04:17.478Z,9.98
2022-11-05T07:06:43.875Z,10.15
2022-11-05T07:09:10.262Z,10.15
2022-11-05T07:11:36.650Z,10.02
2022-11-05T07:14:03.077Z,10.07
2022-11-05T07:16:29.606Z,10.09
2022-11-05T07:18:56.047Z,10.17
2022-11-05T07:21:22.567Z,10.17
2022-11-05T07:23:49.046Z,10.23
2022-11-05T07:26:15.475Z,10.16
2022-11-05T07:28:41.976Z,10.15
2022-11-05T07:31:08.613Z,10.11
2022-11-05T07:33:36.664Z,10.16
2022-11-05T07:36:03.440Z,10.17
2022-11-05T07:38:30.579Z,10.27
2022-11-05T07:40:59.428Z,10.06
2022-11-05T07:43:25.993Z,10.05
2022-11-05T07:45:52.395Z,10.14
2022-11-05T07:48:18.834Z,10.13
2022-11-05T07:50:45.238Z,10.24
2022-11-05T07:53:14.481Z,10.24
2022-11-05T07:55:41.859Z,10.13
2022-11-05T07:58:09.320Z,10.11
2022-11-05T08:00:35.963Z,10.01
2022-11-05T08:03:08.202Z,10.23
2022-11-05T08:05:37.973Z,10.21
2022-11-05T08:08:05.962Z,10.40
2022-11-05T08:10:34.043Z,10.46
2022-11-05T08:13:00.584Z,10.58
2022-11-05T08:15:27.421Z,10.58
2022-11-05T08:18:05.228Z,10.61
2022-11-05T08:20:32.564Z,10.66
2022-11-05T08:22:59.271Z,10.70
2022-11-05T08:25:26.081Z,10.69
2022-11-05T08:28:00.748Z,10.79
2022-11-05T08:30:30.479Z,10.79
2022-11-05T08:33:10.205Z,10.82
2022-11-05T08:35:38.265Z,10.91
2022-11-05T08:38:06.871Z,11.01
2022-11-05T08:40:35.303Z,11.19
2022-11-05T08:43:03.750Z,11.22
2022-11-05T08:45:31.393Z,11.19
2022-11-05T08:48:08.198Z,11.42
2022-11-05T08:50:35.087Z,11.28
2022-11-05T08:53:01.734Z,11.37
2022-11-05T08:55:28.382Z,11.43
2022-11-05T08:58:03.135Z,11.37
2022-11-05T09:00:32.548Z,11.33
2022-11-05T09:03:01.494Z,11.30
2022-11-05T09:05:29.097Z,11.30
2022-11-05T09:08:00.845Z,11.12
2022-11-05T09:10:28.653Z,11.01
2022-11-05T09:12:55.492Z,10.97
2022-11-05T09:15:23.180Z,10.91
2022-11-05T09:17:49.724Z,10.92
2022-11-05T09:20:16.255Z,10.93
2022-11-05T09:22:43.732Z,10.86
2022-11-05T09:25:10.291Z,10.88
2022-11-05T09:27:36.688Z,10.91
2022-11-05T09:30:04.327Z,10.92
2022-11-05T09:32:31.634Z,11.11
2022-11-05T09:35:00.266Z,11.19
2022-11-05T09:37:27.994Z,11.36
2022-11-05T09:39:54.448Z,11.46
2022-11-05T09:42:24.459Z,11.65
2022-11-05T09:45:03.735Z,11.83
2022-11-05T09:47:39.487Z,11.97
2022-11-05T09:50:15.352Z,12.20
2022-11-05T09:52:41.939Z,12.29
2022-11-05T09:55:28.994Z,12.29
2022-11-05T09:58:00.412Z,12.33
2022-11-05T10:00:28.706Z,12.22
2022-11-05T10:03:03.042Z,12.26
2022-11-05T10:05:31.285Z,12.13
2022-11-05T10:08:02.458Z,12.05
2022-11-05T10:10:43.229Z,12.08
2022-11-05T10:13:45.186Z,12.11
2022-11-05T10:16:11.542Z,12.25
2022-11-05T10:18:43.582Z,12.31
2022-11-05T10:21:27.814Z,12.28
2022-11-05T10:24:15.652Z,12.17
2022-11-05T10:26:43.523Z,11.99
2022-11-05T10:29:13.669Z,12.05
2022-11-05T10:31:40.348Z,12.13
2022-11-05T10:34:08.342Z,12.09
2022-11-05T10:36:37.036Z,12.14
2022-11-05T10:39:12.167Z,12.17
2022-11-05T10:42:02.900Z,12.17
2022-11-05T10:44:58.638Z,12.25
2022-11-05T10:47:25.020Z,12.33
2022-11-05T10:50:01.961Z,12.25
2022-11-05T10:52:34.274Z,12.28
2022-11-05T10:55:04.135Z,12.27
2022-11-05T10:57:37.077Z,12.37
2022-11-05T11:00:15.532Z,12.44
2022-11-05T11:03:02.872Z,12.27
2022-11-05T11:05:40.125Z,12.01
2022-11-05T11:08:23.596Z,12.13
2022-11-05T11:10:57.041Z,12.21
2022-11-05T11:13:28.312Z,12.35
2022-11-05T11:15:55.479Z,12.31
2022-11-05T11:18:40.381Z,12.28
2022-11-05T11:21:17.372Z,12.32
2022-11-05T11:23:54.192Z,12.35
2022-11-05T11:26:21.853Z,12.47
2022-11-05T11:29:01.225Z,12.59
2022-11-05T11:31:30.116Z,12.54
2022-11-05T11:34:00.959Z,12.68
2022-11-05T11:36:52.866Z,12.71
2022-11-05T11:39:27.529Z,13.03
2022-11-05T11:41:58.235Z,13.22
2022-11-05T11:44:36.657Z,13.14
2022-11-05T11:47:14.746Z,13.18
2022-11-05T11:49:50.251Z,13.13
2022-11-05T11:52:24.040Z,13.38
2022-11-05T11:54:52.218Z,14.07
2022-11-05T11:57:24.494Z,14.41
2022-11-05T12:00:08.162Z,14.88
2022-11-05T12:03:01.869Z,15.57
2022-11-05T12:05:39.927Z,16.16
2022-11-05T12:08:27.841Z,15.89
2022-11-05T12:11:04.346Z,15.90
2022-11-05T12:13:54.808Z,15.61
2022-11-05T12:17:03.554Z,15.27
2022-11-05T12:19:41.475Z,15.26
2022-11-05T12:22:28.203Z,15.26
2022-11-05T12:25:03.811Z,15.52
2022-11-05T12:27:48.588Z,15.89
2022-11-05T12:30:18.246Z,16.81
2022-11-05T12:33:09.881Z,17.25
2022-11-05T12:36:06.424Z,17.78
2022-11-05T12:38:54.401Z,18.70
2022-11-05T12:41:38.744Z,18.45
2022-11-05T12:44:25.664Z,18.29
2022-11-05T12:47:04.230Z,17.81
2022-11-05T12:49:57.597Z,17.22
2022-11-05T12:52:52.057Z,17.48
2022-11-05T12:55:22.593Z,18.03
2022-11-05T12:57:54.988Z,18.50
2022-11-05T13:00:24.124Z,18.75
2022-11-05T13:03:19.607Z,19.13
2022-11-05T13:06:05.931Z,18.89
2022-11-05T13:08:44.591Z,18.49
2022-11-05T13:11:27.472Z,18.36
2022-11-05T13:14:04.248Z,18.63
2022-11-05T13:16:45.147Z,18.61
2022-11-05T13:19:24.267Z,18.40
2022-11-05T13:22:16.747Z,17.98
2022-11-05T13:24:53.587Z,17.74
2022-11-05T13:27:41.501Z,17.10
2022-11-05T13:30:14.904Z,16.83
2022-11-05T13:32:46.471Z,16.43
2022-11-05T13:35:22.266Z,16.30
2022-11-05T13:38:14.111Z,15.80
2022-11-05T13:40:40.462Z,15.22
2022-11-05T13:43:09.921Z,14.72
2022-11-05T13:45:51.411Z,14.54
2022-11-05T13:48:42.524Z,14.13
2022-11-05T13:51:08.869Z,14.23
2022-11-05T13:53:50.397Z,14.29
2022-11-05T13:56:25.788Z,14.26
2022-11-05T13:59:10.170Z,14.22
2022-11-05T14:01:59.879Z,14.26
2022-11-05T14:05:02.402Z,14.07
2022-11-05T14:07:36.642Z,13.57
2022-11-05T14:10:30.834Z,13.40
2022-11-05T14:13:01.348Z,13.41
2022-11-05T14:15:30.155Z,13.45
2022-11-05T14:18:23.830Z,13.54
2022-11-05T14:21:02.332Z,13.37
2022-11-05T14:23:40.065Z,13.34
2022-11-05T14:26:17.707Z,13.36
2022-11-05T14:28:50.214Z,13.37
2022-11-05T14:31:19.674Z,13.50
2022-11-05T14:34:02.444Z,13.50
2022-11-05T14:36:36.039Z,13.59
2022-11-05T14:39:26.127Z,13.68
2022-11-05T14:42:01.940Z,13.55
2022-11-05T14:44:30.350Z,13.57
2022-11-05T14:47:03.223Z,13.51
2022-11-05T14:49:34.510Z,13.41
2022-11-05T14:52:07.630Z,13.36
2022-11-05T14:54:51.202Z,13.30
2022-11-05T14:57:36.494Z,13.14
2022-11-05T15:00:04.895Z,13.11
2022-11-05T15:02:38.437Z,13.00
2022-11-05T15:05:35.731Z,12.89
2022-11-05T15:08:29.139Z,12.68
2022-11-05T15:11:06.732Z,12.66
2022-11-05T15:13:38.234Z,12.59
2022-11-05T15:16:06.899Z,12.27
2022-11-05T15:18:38.930Z,12.21
2022-11-05T15:21:11.707Z,12.15
2022-11-05T15:23:43.425Z,12.13
2022-11-05T15:26:29.164Z,12.07
2022-11-05T15:28:56.114Z,12.06
2022-11-05T15:31:37.690Z,11.98
2022-11-05T15:34:19.150Z,11.91
2022-11-05T15:36:51.719Z,11.93
2022-11-05T15:39:40.463Z,11.87
2022-11-05T15:42:13.856Z,11.81
2022-11-05T15:44:42.145Z,11.77
2022-11-05T15:47:13.187Z,11.84
2022-11-05T15:49:46.326Z,11.72
2022-11-05T15:52:15.204Z,11.65
2022-11-05T15:54:42.722Z,11.72
2022-11-05T15:57:23.088Z,11.65
2022-11-05T15:59:49.605Z,11.66
2022-11-05T16:02:30.829Z,11.74
2022-11-05T16:04:58.421Z,11.55
2022-11-05T16:07:25.405Z,11.55
2022-11-05T16:09:58.747Z,11.56
2022-11-05T16:12:27.801Z,11.35
2022-11-05T16:15:09.433Z,11.28
2022-11-05T16:17:48.380Z,11.13
2022-11-05T16:20:32.261Z,11.07
2022-11-05T16:23:04.836Z,11.22
2022-11-05T16:25:31.229Z,11.27
2022-11-05T16:27:59.716Z,11.10
2022-11-05T16:30:26.350Z,10.97
2022-11-05T16:32:53.337Z,10.85
2022-11-05T16:35:24.645Z,10.81
2022-11-05T16:37:52.719Z,10.71
2022-11-05T16:40:24.749Z,10.74
2022-11-05T16:42:53.758Z,10.66
2022-11-05T16:45:23.877Z,10.80
2022-11-05T16:47:51.190Z,10.52
2022-11-05T16:50:20.344Z,10.51
2022-11-05T16:52:46.911Z,10.66
2022-11-05T16:55:15.129Z,10.54
2022-11-05T16:57:44.386Z,10.39
2022-11-05T17:00:15.070Z,10.54
2022-11-05T17:02:41.735Z,10.28
2022-11-05T17:05:17.599Z,10.28
2022-11-05T17:07:44.037Z,10.20
2022-11-05T17:10:11.059Z,10.27
2022-11-05T17:12:37.540Z,10.06
2022-11-05T17:15:16.718Z,10.03
2022-11-05T17:17:43.202Z,9.89
2022-11-05T17:20:28.139Z,10.04
2022-11-05T17:22:57.356Z,9.81
2022-11-05T17:25:25.203Z,9.70
2022-11-05T17:27:52.200Z,9.60
2022-11-05T17:30:18.907Z,9.71
2022-11-05T17:32:45.509Z,9.51
2022-11-05T17:35:12.546Z,9.35
2022-11-05T17:37:39.038Z,9.53
2022-11-05T17:40:07.495Z,9.48
2022-11-05T17:42:34.064Z,9.46
2022-11-05T17:45:00.489Z,9.50
2022-11-05T17:47:27.919Z,9.60
2022-11-05T17:49:54.310Z,9.56
2022-11-05T17:52:20.921Z,9.42
2022-11-05T17:54:47.427Z,9.53
2022-11-05T17:57:13.865Z,9.16
2022-11-05T17:59:41.958Z,9.27
2022-11-05T18:02:12.678Z,9.17
2022-11-05T18:04:39.747Z,9.23
2022-11-05T18:07:06.892Z,9.21
2022-11-05T18:09:33.419Z,9.31
2022-11-05T18:11:59.847Z,9.09
2022-11-05T18:14:26.301Z,9.20
2022-11-05T18:16:55.159Z,9.29
2022-11-05T18:19:21.767Z,9.09
2022-11-05T18:21:48.179Z,8.89
2022-11-05T18:24:15.418Z,8.93
2022-11-05T18:26:42.225Z,8.91
2022-11-05T18:29:08.894Z,8.87
2022-11-05T18:31:35.338Z,9.07
2022-11-05T18:34:01.820Z,8.99
2022-11-05T18:36:30.546Z,8.90
2022-11-05T18:38:58.841Z,8.66
2022-11-05T18:41:26.022Z,8.48
2022-11-05T18:43:52.468Z,8.72
2022-11-05T18:46:51.118Z,8.60
2022-11-05T18:49:05.762Z,8.57
2022-11-05T18:51:32.587Z,8.57
2022-11-05T18:53:59.589Z,8.56
2022-11-05T18:56:26.018Z,8.56
2022-11-05T18:59:21.902Z,8.62
2022-11-05T19:01:41.518Z,8.73
2022-11-05T19:04:07.986Z,8.60
2022-11-05T19:06:35.346Z,8.59
2022-11-05T19:09:01.815Z,8.61
2022-11-05T19:11:28.843Z,8.57
2022-11-05T19:13:55.242Z,8.30
2022-11-05T19:16:24.986Z,8.50
2022-11-05T19:18:52.137Z,8.37
2022-11-05T19:21:21.677Z,8.37
2022-11-05T19:23:48.901Z,8.40
2022-11-05T19:26:18.408Z,8.41
2022-11-05T19:28:45.297Z,8.35
2022-11-05T19:31:14.889Z,8.24
2022-11-05T19:33:42.467Z,8.45
2022-11-05T19:36:10.176Z,8.55
2022-11-05T19:38:37.071Z,8.60
2022-11-05T19:41:07.889Z,8.32
2022-11-05T19:43:35.561Z,8.47
2022-11-05T19:46:10.574Z,8.40
2022-11-05T19:48:37.612Z,8.25
2022-11-05T19:51:06.176Z,8.23
2022-11-05T19:53:35.043Z,8.22
2022-11-05T19:56:16.516Z,7.87
2022-11-05T19:58:44.180Z,7.95
2022-11-05T20:01:12.513Z,7.86
2022-11-05T20:03:39.893Z,8.05
2022-11-05T20:06:16.435Z,7.95
2022-11-05T20:09:07.177Z,7.88
2022-11-05T20:11:31.135Z,8.03
2022-11-05T20:13:57.787Z,7.94
2022-11-05T20:16:27.716Z,7.98
2022-11-05T20:18:55.160Z,7.99
2022-11-05T20:21:21.573Z,8.07
2022-11-05T20:23:48.376Z,7.83
2022-11-05T20:26:15.834Z,7.76
2022-11-05T20:28:43.777Z,7.70
2022-11-05T20:31:12.883Z,7.60
2022-11-05T20:33:40.788Z,7.89
2022-11-05T20:36:10.593Z,7.78
2022-11-05T20:38:37.038Z,7.86
2022-11-05T20:41:08.035Z,7.94
2022-11-05T20:43:35.331Z,7.71
2022-11-05T20:46:02.009Z,7.68
2022-11-05T20:48:32.440Z,7.77
2022-11-05T20:50:59.650Z,7.88
2022-11-05T20:53:26.067Z,8.00
2022-11-05T20:55:52.476Z,7.72
2022-11-05T20:58:18.931Z,7.66
2022-11-05T21:00:51.304Z,7.58
2022-11-05T21:03:19.537Z,7.40
2022-11-05T21:05:52.095Z,7.39
2022-11-05T21:08:20.089Z,7.44
2022-11-05T21:10:51.096Z,7.40
2022-11-05T21:13:18.195Z,7.43
2022-11-05T21:15:53.391Z,7.29
2022-11-05T21:18:22.134Z,7.38
2022-11-05T21:20:48.879Z,7.34
2022-11-05T21:23:15.867Z,7.45
2022-11-05T21:25:43.415Z,7.39
2022-11-05T21:28:11.602Z,7.19
2022-11-05T21:30:41.636Z,6.97
2022-11-05T21:33:08.853Z,7.16
2022-11-05T21:35:41.543Z,7.11
2022-11-05T21:38:08.080Z,7.04
2022-11-05T21:40:34.737Z,6.89
2022-11-05T21:43:01.320Z,6.90
2022-11-05T21:45:28.067Z,6.98
2022-11-05T21:47:54.502Z,6.97
2022-11-05T21:50:41.126Z,7.08
2022-11-05T21:53:31.620Z,7.11
2022-11-05T21:56:17.106Z,7.09
2022-11-05T21:59:01.838Z,7.15
2022-11-05T22:01:28.466Z,7.06
2022-11-05T22:04:00.280Z,7.13
2022-11-05T22:06:29.171Z,7.03
2022-11-05T22:08:55.567Z,7.03
2022-11-05T22:11:22.002Z,7.15
2022-11-05T22:13:48.426Z,7.16
2022-11-05T22:16:14.827Z,7.03
2022-11-05T22:18:41.230Z,7.07
2022-11-05T22:21:07.919Z,6.99
2022-11-05T22:23:34.320Z,7.08
2022-11-05T22:26:01.796Z,6.93
2022-11-05T22:28:28.226Z,7.04
2022-11-05T22:30:54.619Z,7.19
2022-11-05T22:33:21.187Z,6.89
2022-11-05T22:35:47.669Z,6.86
2022-11-05T22:38:14.418Z,6.84
2022-11-05T22:40:40.945Z,6.70
2022-11-05T22:43:07.358Z,6.80
2022-11-05T22:45:37.269Z,6.79
2022-11-05T22:48:08.862Z,6.72
2022-11-05T22:50:35.303Z,6.66
2022-11-05T22:53:01.780Z,6.65
2022-11-05T22:55:28.272Z,6.55
2022-11-05T22:57:54.681Z,6.56
2022-11-05T23:00:32.929Z,6.65
2022-11-05T23:02:59.489Z,6.65
2022-11-05T23:05:26.056Z,6.57
2022-11-05T23:08:11.413Z,6.56
2022-11-05T23:10:58.162Z,6.35
2022-11-05T23:13:24.539Z,6.48
2022-11-05T23:16:09.384Z,6.59
2022-11-05T23:18:54.145Z,6.29
2022-11-05T23:21:39.069Z,6.23
2022-11-05T23:24:05.924Z,6.23
2022-11-05T23:26:52.612Z,6.01
2022-11-05T23:29:22.391Z,5.97
2022-11-05T23:32:08.598Z,5.86
2022-11-05T23:34:35.563Z,5.99
2022-11-05T23:37:20.621Z,5.80
2022-11-05T23:39:47.123Z,5.80
2022-11-05T23:42:32.295Z,5.98
2022-11-05T23:45:24.678Z,6.01
2022-11-05T23:48:09.801Z,5.98
2022-11-05T23:50:39.783Z,6.09
2022-11-05T23:53:07.198Z,6.06
2022-11-05T23:55:33.841Z,6.23
2022-11-05T23:58:00.376Z,6.16
